Flight Track Log - Related Links

Times and Time Zones

All times are in EDT time to prevent confusion due to time zone crossing. See the N70AG flight status page for this flight to view local times or setup timezone preferences in your user account.

Time Position Orientation Groundspeed Altitude Reporting Facility
EDT Latitude Longitude Course Direction KTS MPH feet Rate Location/Type
Wed 06:37:11 PM 32.7869 -117.3011 300° West 225 259 7,400  Level Los Angeles Center
Wed 06:38:13 PM 32.8325 -117.3711 308° West 249 287 9,900 2,419 Climbing Los Angeles Center
Wed 06:39:15 PM 32.8819 -117.4558 305° West 288 331 12,400 2,855 Climbing Los Angeles Center
Wed 06:40:17 PM 32.9583 -117.5364 319° Northwest 341 392 15,800 3,145 Climbing Los Angeles Center
Wed 06:41:19 PM 33.0431 -117.6142 322° Northwest 368 423 18,900 3,360 Climbing Los Angeles Center
Wed 06:42:22 PM 33.1242 -117.7461 306° West 395 455 22,800 3,312 Climbing Los Angeles Center
Wed 06:43:24 PM 33.1925 -117.8617 305° West 411 473 25,800 2,903 Climbing Los Angeles Center
Wed 06:44:26 PM 33.2378 -117.9992 292° West 433 498 28,800 3,242 Climbing Los Angeles Center
Wed 06:45:28 PM 33.3142 -118.1078 310° West 432 497 32,500 3,145 Climbing Los Angeles Center
Wed 06:46:30 PM 33.4208 -118.1714 334° Northwest 431 496 35,300 1,694 Climbing Los Angeles Center
Wed 06:47:32 PM 33.5367 -118.2200 341° North 435 501 36,000 339 Climbing Los Angeles Center
Wed 06:48:34 PM 33.6931 -118.2894 340° North 467 537 36,000  Level Los Angeles Center
Wed 06:49:36 PM 33.8242 -118.3461 340° North 497 572 36,000  Level Los Angeles Center
Wed 06:50:38 PM 33.9392 -118.3975 340° North 495 570 36,000  Level Los Angeles Center
Wed 06:51:41 PM 34.0919 -118.4658 340° North 490 564 36,000  Level Los Angeles Center
Wed 06:52:42 PM 34.2197 -118.5231 340° North 490 564 36,000  Level Los Angeles Center
Wed 06:53:45 PM 34.3467 -118.5808 339° North 488 562 36,000  Level Los Angeles Center
Wed 06:54:47 PM 34.4742 -118.6414 339° North 492 566 36,000  Level Los Angeles Center
Wed 06:56:01 PM 34.6019 -118.6994 339° North 491 565 36,000  Level Los Angeles Center
Wed 06:57:03 PM 34.7808 -118.7861 338° Northwest 496 571 36,000  Level Los Angeles Center
Wed 06:58:05 PM 34.9008 -118.8433 339° North 498 573 36,000  Level Los Angeles Center
Wed 06:59:08 PM 35.0417 -118.9103 339° North 490 564 36,000  Level Los Angeles Center
Wed 07:00:11 PM 35.1714 -118.9706 339° North 499 574 36,000  Level Los Angeles Center
Wed 07:01:13 PM 35.3006 -119.0325 339° North 503 579 36,000  Level Los Angeles Center
Wed 07:02:15 PM 35.4269 -119.0939 338° Northwest 494 568 36,000  Level Los Angeles Center
Wed 07:03:17 PM 35.5811 -119.1686 338° Northwest 496 571 36,000  Level Los Angeles Center
Wed 07:04:19 PM 35.7081 -119.2328 338° Northwest 496 571 36,000  Level Los Angeles Center
Wed 07:05:21 PM 35.8358 -119.2953 338° Northwest 497 572 36,000  Level Los Angeles Center
Wed 07:06:15 PM 35.9353 -119.3431 339° North 496 571 36,000 -52 Level Oakland Center
Wed 07:07:17 PM 36.0883 -119.4189 338° Northwest 497 572 35,900 -98 Descending Oakland Center
Wed 07:08:18 PM 36.2161 -119.4797 339° North 495 570 35,800 -634 Descending Oakland Center
Wed 07:09:20 PM 36.3411 -119.5508 335° Northwest 495 570 34,600 -1,024 Descending Oakland Center
Wed 07:10:21 PM 36.4483 -119.6514 323° Northwest 487 560 33,700 -1,415 Descending Oakland Center
Wed 07:11:23 PM 36.5511 -119.7600 320° Northwest 488 562 31,700 -1,951 Descending Oakland Center
Wed 07:12:24 PM 36.6564 -119.8744 319° Northwest 501 577 29,700 -2,000 Descending Oakland Center
Wed 07:13:26 PM 36.7611 -119.9886 319° Northwest 503 579 27,600 -2,195 Descending Oakland Center
Wed 07:14:27 PM 36.8825 -120.1200 319° Northwest 484 557 25,200 -2,000 Descending Oakland Center
Wed 07:15:29 PM 36.9678 -120.2156 318° Northwest 472 543 23,500 -1,790 Descending Oakland Center
Wed 07:16:31 PM 37.0644 -120.3200 319° Northwest 460 529 21,500 -1,951 Descending Oakland Center
Wed 07:17:32 PM 37.1775 -120.4419 319° Northwest 450 518 19,500 -1,623 Descending Oakland Center
Wed 07:18:33 PM 37.2667 -120.5333 321° Northwest 441 507 18,200 -1,537 Descending Northern Cal TRACON
Wed 07:19:33 PM 37.3667 -120.6500 317° Northwest 424 488 16,400 -1,750 Descending Northern Cal TRACON
Wed 07:20:33 PM 37.4500 -120.7333 322° Northwest 411 473 14,700 -2,452 Descending Northern Cal TRACON
Wed 07:22:39 PM 37.6167 -120.9167 319° Northwest 355 409 8,800 -2,233 Descending Northern Cal TRACON
Wed 07:23:33 PM 37.6667 -120.9833 313° West 300 345 8,000 -1,300 Descending Northern Cal TRACON
Wed 07:24:39 PM 37.7333 -121.0500 322° Northwest 254 292 6,200 -1,857 Descending Northern Cal TRACON
Wed 07:25:39 PM 37.7833 -121.1000 322° Northwest 221 254 4,100 -1,900 Descending Northern Cal TRACON
Wed 07:26:39 PM 37.8333 -121.1333 332° Northwest 197 227 2,400 -1,550 Descending Northern Cal TRACON
Wed 07:27:39 PM 37.8667 -121.1833 310° West 162 186 1,000 -1,050 Descending Northern Cal TRACON
Wed 07:28:39 PM 37.8833 -121.2167 302° West 115 132 300 -700 Descending Northern Cal TRACON

Login

Don't have an account? Register now (free) for customized features, flight alerts, and more!